sensor_id;sensor_type;location;lat;lon;timestamp;P1;durP1;ratioP1;P2;durP2;ratioP2
73816;SDS011;62146;53.232;-1.304;2022-08-11T00:01:56;5.63;;;1.50;;
73816;SDS011;62146;53.232;-1.304;2022-08-11T00:04:25;4.75;;;1.63;;
73816;SDS011;62146;53.232;-1.304;2022-08-11T00:06:53;4.72;;;1.40;;
73816;SDS011;62146;53.232;-1.304;2022-08-11T00:09:22;5.53;;;1.83;;
73816;SDS011;62146;53.232;-1.304;2022-08-11T00:12:04;3.63;;;1.30;;
73816;SDS011;62146;53.232;-1.304;2022-08-11T00:14:40;4.27;;;1.50;;
73816;SDS011;62146;53.232;-1.304;2022-08-11T00:17:10;6.05;;;1.58;;
73816;SDS011;62146;53.232;-1.304;2022-08-11T00:19:39;8.15;;;1.63;;
73816;SDS011;62146;53.232;-1.304;2022-08-11T00:22:30;9.40;;;1.60;;
73816;SDS011;62146;53.232;-1.304;2022-08-11T00:24:58;3.95;;;1.45;;
73816;SDS011;62146;53.232;-1.304;2022-08-11T00:27:34;5.50;;;1.50;;
73816;SDS011;62146;53.232;-1.304;2022-08-11T00:30:04;6.65;;;1.60;;
73816;SDS011;62146;53.232;-1.304;2022-08-11T00:32:32;3.90;;;1.50;;
73816;SDS011;62146;53.232;-1.304;2022-08-11T00:35:00;5.10;;;1.70;;
73816;SDS011;62146;53.232;-1.304;2022-08-11T00:37:49;4.45;;;1.42;;
73816;SDS011;62146;53.232;-1.304;2022-08-11T00:40:26;6.27;;;1.97;;
73816;SDS011;62146;53.232;-1.304;2022-08-11T01:00:20;4.63;;;1.38;;
73816;SDS011;62146;53.232;-1.304;2022-08-11T01:40:19;6.82;;;1.90;;
73816;SDS011;62146;53.232;-1.304;2022-08-11T01:49:01;6.50;;;1.70;;
73816;SDS011;62146;53.232;-1.304;2022-08-11T01:52:18;5.07;;;1.60;;
73816;SDS011;62146;53.232;-1.304;2022-08-11T01:57:46;3.58;;;1.45;;
73816;SDS011;62146;53.232;-1.304;2022-08-11T02:03:34;7.75;;;1.67;;
73816;SDS011;62146;53.232;-1.304;2022-08-11T02:06:28;4.20;;;1.40;;
73816;SDS011;62146;53.232;-1.304;2022-08-11T02:12:18;5.97;;;1.60;;
73816;SDS011;62146;53.232;-1.304;2022-08-11T02:20:36;6.10;;;1.90;;
73816;SDS011;62146;53.232;-1.304;2022-08-11T02:26:49;7.55;;;2.00;;
73816;SDS011;62146;53.232;-1.304;2022-08-11T02:29:34;4.60;;;1.80;;
73816;SDS011;62146;53.232;-1.304;2022-08-11T02:35:17;5.17;;;1.70;;
73816;SDS011;62146;53.232;-1.304;2022-08-11T02:38:13;5.50;;;2.30;;
73816;SDS011;62146;53.232;-1.304;2022-08-11T02:41:09;4.85;;;1.63;;
73816;SDS011;62146;53.232;-1.304;2022-08-11T02:47:04;5.68;;;1.67;;
73816;SDS011;62146;53.232;-1.304;2022-08-11T02:58:52;5.85;;;1.77;;
73816;SDS011;62146;53.232;-1.304;2022-08-11T03:02:06;3.67;;;1.50;;
73816;SDS011;62146;53.232;-1.304;2022-08-11T03:13:33;5.47;;;1.85;;
73816;SDS011;62146;53.232;-1.304;2022-08-11T03:17:09;3.97;;;1.50;;
73816;SDS011;62146;53.232;-1.304;2022-08-11T03:25:21;4.90;;;1.63;;
73816;SDS011;62146;53.232;-1.304;2022-08-11T03:34:08;4.00;;;1.57;;
73816;SDS011;62146;53.232;-1.304;2022-08-11T03:57:26;5.80;;;1.80;;
73816;SDS011;62146;53.232;-1.304;2022-08-11T04:13:48;3.85;;;1.52;;
73816;SDS011;62146;53.232;-1.304;2022-08-11T04:28:54;6.55;;;1.90;;
73816;SDS011;62146;53.232;-1.304;2022-08-11T04:34:26;5.97;;;1.70;;
73816;SDS011;62146;53.232;-1.304;2022-08-11T04:37:30;6.65;;;2.10;;
73816;SDS011;62146;53.232;-1.304;2022-08-11T04:48:50;5.00;;;1.80;;
73816;SDS011;62146;53.232;-1.304;2022-08-11T05:15:01;5.57;;;2.28;;
73816;SDS011;62146;53.232;-1.304;2022-08-11T05:17:53;4.20;;;1.80;;
73816;SDS011;62146;53.232;-1.304;2022-08-11T05:20:54;4.93;;;2.10;;
73816;SDS011;62146;53.232;-1.304;2022-08-11T05:23:42;4.53;;;2.00;;
73816;SDS011;62146;53.232;-1.304;2022-08-11T05:26:40;7.57;;;2.08;;
73816;SDS011;62146;53.232;-1.304;2022-08-11T05:29:40;9.43;;;2.15;;
73816;SDS011;62146;53.232;-1.304;2022-08-11T05:32:34;4.77;;;1.90;;
73816;SDS011;62146;53.232;-1.304;2022-08-11T05:35:30;5.40;;;2.03;;
73816;SDS011;62146;53.232;-1.304;2022-08-11T05:38:24;5.78;;;2.13;;
73816;SDS011;62146;53.232;-1.304;2022-08-11T05:41:11;6.97;;;2.22;;
73816;SDS011;62146;53.232;-1.304;2022-08-11T05:43:58;4.88;;;2.00;;
73816;SDS011;62146;53.232;-1.304;2022-08-11T05:46:48;7.82;;;2.15;;
73816;SDS011;62146;53.232;-1.304;2022-08-11T05:49:34;4.27;;;2.10;;
73816;SDS011;62146;53.232;-1.304;2022-08-11T05:52:23;6.43;;;2.10;;
73816;SDS011;62146;53.232;-1.304;2022-08-11T05:55:14;5.75;;;2.40;;
73816;SDS011;62146;53.232;-1.304;2022-08-11T05:58:01;5.55;;;2.55;;
73816;SDS011;62146;53.232;-1.304;2022-08-11T06:00:31;6.43;;;2.88;;
73816;SDS011;62146;53.232;-1.304;2022-08-11T06:03:07;5.77;;;2.60;;
73816;SDS011;62146;53.232;-1.304;2022-08-11T06:05:36;8.20;;;3.00;;
73816;SDS011;62146;53.232;-1.304;2022-08-11T06:08:09;6.43;;;2.58;;
73816;SDS011;62146;53.232;-1.304;2022-08-11T06:10:41;6.82;;;2.40;;
73816;SDS011;62146;53.232;-1.304;2022-08-11T06:13:09;6.13;;;2.47;;
73816;SDS011;62146;53.232;-1.304;2022-08-11T06:15:46;12.23;;;2.83;;
73816;SDS011;62146;53.232;-1.304;2022-08-11T06:18:14;5.55;;;2.75;;
73816;SDS011;62146;53.232;-1.304;2022-08-11T06:20:52;9.82;;;2.65;;
73816;SDS011;62146;53.232;-1.304;2022-08-11T06:23:21;12.40;;;3.08;;
73816;SDS011;62146;53.232;-1.304;2022-08-11T06:25:50;13.05;;;3.35;;
73816;SDS011;62146;53.232;-1.304;2022-08-11T06:28:27;9.67;;;2.73;;
73816;SDS011;62146;53.232;-1.304;2022-08-11T06:30:58;9.77;;;2.90;;
73816;SDS011;62146;53.232;-1.304;2022-08-11T06:33:30;9.50;;;3.10;;
73816;SDS011;62146;53.232;-1.304;2022-08-11T06:41:45;13.77;;;2.97;;
73816;SDS011;62146;53.232;-1.304;2022-08-11T06:44:32;7.25;;;2.50;;
73816;SDS011;62146;53.232;-1.304;2022-08-11T06:47:08;9.30;;;2.85;;
73816;SDS011;62146;53.232;-1.304;2022-08-11T06:49:37;14.55;;;2.75;;
73816;SDS011;62146;53.232;-1.304;2022-08-11T06:52:31;15.05;;;3.47;;
73816;SDS011;62146;53.232;-1.304;2022-08-11T06:55:09;16.80;;;3.20;;
73816;SDS011;62146;53.232;-1.304;2022-08-11T06:57:58;14.45;;;3.00;;
73816;SDS011;62146;53.232;-1.304;2022-08-11T07:00:54;11.05;;;2.92;;
73816;SDS011;62146;53.232;-1.304;2022-08-11T07:03:23;12.73;;;3.50;;
73816;SDS011;62146;53.232;-1.304;2022-08-11T07:05:54;7.53;;;2.88;;
73816;SDS011;62146;53.232;-1.304;2022-08-11T07:14:32;11.35;;;3.13;;
73816;SDS011;62146;53.232;-1.304;2022-08-11T07:17:26;7.65;;;2.88;;
73816;SDS011;62146;53.232;-1.304;2022-08-11T07:19:56;15.45;;;6.47;;
73816;SDS011;62146;53.232;-1.304;2022-08-11T07:22:45;9.90;;;3.80;;
73816;SDS011;62146;53.232;-1.304;2022-08-11T07:25:40;8.48;;;2.97;;
73816;SDS011;62146;53.232;-1.304;2022-08-11T07:28:32;7.28;;;3.10;;
73816;SDS011;62146;53.232;-1.304;2022-08-11T07:31:38;8.07;;;3.20;;
73816;SDS011;62146;53.232;-1.304;2022-08-11T07:36:59;8.27;;;2.80;;
73816;SDS011;62146;53.232;-1.304;2022-08-11T07:39:30;8.10;;;2.67;;
73816;SDS011;62146;53.232;-1.304;2022-08-11T07:41:58;7.30;;;3.13;;
73816;SDS011;62146;53.232;-1.304;2022-08-11T07:44:34;5.90;;;2.50;;
73816;SDS011;62146;53.232;-1.304;2022-08-11T07:47:21;6.90;;;2.72;;
73816;SDS011;62146;53.232;-1.304;2022-08-11T07:50:07;7.43;;;2.50;;
73816;SDS011;62146;53.232;-1.304;2022-08-11T07:52:56;8.95;;;2.55;;
73816;SDS011;62146;53.232;-1.304;2022-08-11T07:55:25;5.25;;;2.25;;
73816;SDS011;62146;53.232;-1.304;2022-08-11T07:58:16;6.63;;;2.30;;
73816;SDS011;62146;53.232;-1.304;2022-08-11T08:01:19;4.82;;;2.20;;
73816;SDS011;62146;53.232;-1.304;2022-08-11T08:04:06;6.33;;;2.70;;
73816;SDS011;62146;53.232;-1.304;2022-08-11T08:06:55;6.43;;;2.28;;
73816;SDS011;62146;53.232;-1.304;2022-08-11T08:09:41;6.50;;;2.13;;
73816;SDS011;62146;53.232;-1.304;2022-08-11T08:12:28;6.90;;;2.00;;
73816;SDS011;62146;53.232;-1.304;2022-08-11T08:15:15;5.10;;;1.70;;
73816;SDS011;62146;53.232;-1.304;2022-08-11T08:18:02;6.67;;;2.00;;
73816;SDS011;62146;53.232;-1.304;2022-08-11T08:20:51;7.13;;;2.10;;
73816;SDS011;62146;53.232;-1.304;2022-08-11T08:23:20;5.32;;;2.28;;
73816;SDS011;62146;53.232;-1.304;2022-08-11T08:26:04;5.00;;;2.00;;
73816;SDS011;62146;53.232;-1.304;2022-08-11T08:28:56;5.22;;;2.20;;
73816;SDS011;62146;53.232;-1.304;2022-08-11T08:31:46;4.67;;;1.90;;
73816;SDS011;62146;53.232;-1.304;2022-08-11T08:34:14;6.63;;;2.10;;
73816;SDS011;62146;53.232;-1.304;2022-08-11T08:36:43;6.43;;;1.80;;
73816;SDS011;62146;53.232;-1.304;2022-08-11T08:39:12;6.22;;;2.20;;
73816;SDS011;62146;53.232;-1.304;2022-08-11T08:41:39;5.63;;;2.10;;
73816;SDS011;62146;53.232;-1.304;2022-08-11T08:44:10;6.07;;;1.80;;
73816;SDS011;62146;53.232;-1.304;2022-08-11T08:46:59;6.20;;;2.05;;
73816;SDS011;62146;53.232;-1.304;2022-08-11T08:49:32;5.45;;;2.10;;
73816;SDS011;62146;53.232;-1.304;2022-08-11T08:52:06;6.43;;;1.90;;
73816;SDS011;62146;53.232;-1.304;2022-08-11T08:54:55;5.47;;;1.83;;
73816;SDS011;62146;53.232;-1.304;2022-08-11T08:57:27;6.63;;;2.30;;
73816;SDS011;62146;53.232;-1.304;2022-08-11T09:00:04;5.60;;;1.90;;
73816;SDS011;62146;53.232;-1.304;2022-08-11T09:02:38;6.13;;;1.90;;
73816;SDS011;62146;53.232;-1.304;2022-08-11T09:05:05;6.28;;;1.90;;
73816;SDS011;62146;53.232;-1.304;2022-08-11T09:07:35;7.60;;;1.88;;
73816;SDS011;62146;53.232;-1.304;2022-08-11T09:10:07;5.53;;;2.00;;
73816;SDS011;62146;53.232;-1.304;2022-08-11T09:12:37;6.60;;;2.00;;
73816;SDS011;62146;53.232;-1.304;2022-08-11T09:15:07;9.07;;;2.10;;
73816;SDS011;62146;53.232;-1.304;2022-08-11T09:22:45;5.07;;;1.60;;
73816;SDS011;62146;53.232;-1.304;2022-08-11T09:25:56;7.97;;;2.03;;
73816;SDS011;62146;53.232;-1.304;2022-08-11T09:28:44;4.40;;;1.35;;
73816;SDS011;62146;53.232;-1.304;2022-08-11T09:31:12;4.68;;;1.60;;
73816;SDS011;62146;53.232;-1.304;2022-08-11T09:33:40;5.72;;;1.80;;
73816;SDS011;62146;53.232;-1.304;2022-08-11T09:36:09;6.37;;;1.57;;
73816;SDS011;62146;53.232;-1.304;2022-08-11T09:38:56;4.13;;;1.40;;
73816;SDS011;62146;53.232;-1.304;2022-08-11T09:41:43;8.82;;;1.75;;
73816;SDS011;62146;53.232;-1.304;2022-08-11T09:44:27;6.93;;;1.80;;
73816;SDS011;62146;53.232;-1.304;2022-08-11T09:47:21;6.90;;;1.60;;
73816;SDS011;62146;53.232;-1.304;2022-08-11T09:49:50;8.47;;;1.50;;
73816;SDS011;62146;53.232;-1.304;2022-08-11T09:52:20;6.38;;;1.70;;
73816;SDS011;62146;53.232;-1.304;2022-08-11T09:54:48;4.85;;;1.20;;
73816;SDS011;62146;53.232;-1.304;2022-08-11T09:57:20;5.45;;;1.35;;
73816;SDS011;62146;53.232;-1.304;2022-08-11T10:00:07;4.45;;;1.40;;
73816;SDS011;62146;53.232;-1.304;2022-08-11T10:02:42;3.37;;;1.27;;
73816;SDS011;62146;53.232;-1.304;2022-08-11T10:05:14;3.53;;;1.40;;
73816;SDS011;62146;53.232;-1.304;2022-08-11T10:08:02;3.13;;;1.30;;
73816;SDS011;62146;53.232;-1.304;2022-08-11T10:10:30;4.32;;;1.10;;
73816;SDS011;62146;53.232;-1.304;2022-08-11T10:13:02;5.90;;;1.38;;
73816;SDS011;62146;53.232;-1.304;2022-08-11T10:15:53;4.77;;;1.40;;
73816;SDS011;62146;53.232;-1.304;2022-08-11T10:18:41;5.72;;;1.67;;
73816;SDS011;62146;53.232;-1.304;2022-08-11T10:21:39;4.30;;;1.35;;
73816;SDS011;62146;53.232;-1.304;2022-08-11T10:24:06;5.28;;;1.35;;
73816;SDS011;62146;53.232;-1.304;2022-08-11T10:26:54;2.90;;;1.15;;
73816;SDS011;62146;53.232;-1.304;2022-08-11T10:29:26;4.00;;;1.30;;
73816;SDS011;62146;53.232;-1.304;2022-08-11T10:32:22;4.68;;;1.42;;
73816;SDS011;62146;53.232;-1.304;2022-08-11T10:35:25;5.70;;;1.45;;
73816;SDS011;62146;53.232;-1.304;2022-08-11T10:37:53;6.38;;;1.40;;
73816;SDS011;62146;53.232;-1.304;2022-08-11T10:40:44;5.10;;;1.48;;
73816;SDS011;62146;53.232;-1.304;2022-08-11T10:43:12;5.27;;;1.30;;
73816;SDS011;62146;53.232;-1.304;2022-08-11T10:45:59;4.32;;;1.40;;
73816;SDS011;62146;53.232;-1.304;2022-08-11T10:48:55;4.65;;;1.60;;
73816;SDS011;62146;53.232;-1.304;2022-08-11T10:51:24;4.10;;;1.20;;
73816;SDS011;62146;53.232;-1.304;2022-08-11T10:54:19;4.80;;;1.50;;
73816;SDS011;62146;53.232;-1.304;2022-08-11T10:57:06;4.67;;;1.43;;
73816;SDS011;62146;53.232;-1.304;2022-08-11T11:00:03;5.15;;;1.30;;
73816;SDS011;62146;53.232;-1.304;2022-08-11T11:02:31;3.53;;;1.45;;
73816;SDS011;62146;53.232;-1.304;2022-08-11T11:05:06;5.65;;;1.52;;
73816;SDS011;62146;53.232;-1.304;2022-08-11T11:07:46;5.70;;;1.30;;
73816;SDS011;62146;53.232;-1.304;2022-08-11T11:10:20;7.53;;;1.60;;
73816;SDS011;62146;53.232;-1.304;2022-08-11T11:12:50;3.78;;;1.17;;
73816;SDS011;62146;53.232;-1.304;2022-08-11T11:15:40;3.90;;;1.23;;
73816;SDS011;62146;53.232;-1.304;2022-08-11T11:18:32;3.30;;;1.30;;
73816;SDS011;62146;53.232;-1.304;2022-08-11T11:21:04;5.55;;;1.20;;
73816;SDS011;62146;53.232;-1.304;2022-08-11T11:26:26;3.05;;;1.20;;
73816;SDS011;62146;53.232;-1.304;2022-08-11T11:29:24;4.63;;;1.30;;
73816;SDS011;62146;53.232;-1.304;2022-08-11T11:37:38;4.73;;;1.20;;
73816;SDS011;62146;53.232;-1.304;2022-08-11T11:40:23;4.97;;;1.35;;
73816;SDS011;62146;53.232;-1.304;2022-08-11T11:42:56;4.80;;;1.23;;
73816;SDS011;62146;53.232;-1.304;2022-08-11T11:45:24;3.17;;;1.30;;
73816;SDS011;62146;53.232;-1.304;2022-08-11T11:47:52;3.95;;;1.30;;
73816;SDS011;62146;53.232;-1.304;2022-08-11T11:50:33;6.23;;;1.30;;
73816;SDS011;62146;53.232;-1.304;2022-08-11T11:53:06;3.72;;;1.27;;
73816;SDS011;62146;53.232;-1.304;2022-08-11T11:55:35;3.40;;;1.20;;
73816;SDS011;62146;53.232;-1.304;2022-08-11T11:58:03;4.80;;;1.20;;
73816;SDS011;62146;53.232;-1.304;2022-08-11T12:00:50;3.63;;;1.20;;
73816;SDS011;62146;53.232;-1.304;2022-08-11T12:03:37;4.80;;;1.20;;
73816;SDS011;62146;53.232;-1.304;2022-08-11T12:06:05;5.05;;;1.30;;
73816;SDS011;62146;53.232;-1.304;2022-08-11T12:08:34;4.10;;;1.30;;
73816;SDS011;62146;53.232;-1.304;2022-08-11T12:11:02;4.60;;;1.13;;
73816;SDS011;62146;53.232;-1.304;2022-08-11T12:13:51;4.07;;;1.35;;
73816;SDS011;62146;53.232;-1.304;2022-08-11T12:16:19;4.00;;;1.30;;
73816;SDS011;62146;53.232;-1.304;2022-08-11T12:19:08;5.93;;;1.27;;
73816;SDS011;62146;53.232;-1.304;2022-08-11T12:21:38;2.63;;;1.10;;
73816;SDS011;62146;53.232;-1.304;2022-08-11T12:24:27;5.40;;;1.10;;
73816;SDS011;62146;53.232;-1.304;2022-08-11T12:27:13;2.85;;;1.00;;
73816;SDS011;62146;53.232;-1.304;2022-08-11T12:29:58;3.77;;;1.20;;
73816;SDS011;62146;53.232;-1.304;2022-08-11T12:32:28;8.63;;;1.55;;
73816;SDS011;62146;53.232;-1.304;2022-08-11T12:34:56;4.15;;;1.10;;
73816;SDS011;62146;53.232;-1.304;2022-08-11T12:37:26;2.90;;;1.00;;
73816;SDS011;62146;53.232;-1.304;2022-08-11T12:40:04;2.58;;;0.93;;
73816;SDS011;62146;53.232;-1.304;2022-08-11T12:43:15;2.80;;;1.00;;
73816;SDS011;62146;53.232;-1.304;2022-08-11T12:46:04;2.58;;;1.20;;
73816;SDS011;62146;53.232;-1.304;2022-08-11T12:48:42;4.43;;;1.10;;
73816;SDS011;62146;53.232;-1.304;2022-08-11T12:51:40;5.03;;;1.13;;
73816;SDS011;62146;53.232;-1.304;2022-08-11T12:57:38;4.50;;;1.20;;
73816;SDS011;62146;53.232;-1.304;2022-08-11T13:00:26;4.07;;;1.02;;
73816;SDS011;62146;53.232;-1.304;2022-08-11T13:03:13;5.65;;;1.20;;
73816;SDS011;62146;53.232;-1.304;2022-08-11T13:06:02;9.80;;;1.48;;
73816;SDS011;62146;53.232;-1.304;2022-08-11T13:08:32;4.63;;;1.02;;
73816;SDS011;62146;53.232;-1.304;2022-08-11T13:11:03;4.67;;;1.00;;
73816;SDS011;62146;53.232;-1.304;2022-08-11T13:13:50;4.40;;;1.00;;
73816;SDS011;62146;53.232;-1.304;2022-08-11T13:16:24;4.05;;;0.95;;
73816;SDS011;62146;53.232;-1.304;2022-08-11T13:18:55;2.72;;;1.00;;
73816;SDS011;62146;53.232;-1.304;2022-08-11T13:21:24;5.40;;;1.13;;
73816;SDS011;62146;53.232;-1.304;2022-08-11T13:23:52;4.20;;;1.03;;
73816;SDS011;62146;53.232;-1.304;2022-08-11T13:26:31;3.58;;;1.13;;
73816;SDS011;62146;53.232;-1.304;2022-08-11T13:29:21;4.13;;;1.00;;
73816;SDS011;62146;53.232;-1.304;2022-08-11T13:31:51;2.83;;;0.93;;
73816;SDS011;62146;53.232;-1.304;2022-08-11T13:34:20;3.83;;;1.00;;
73816;SDS011;62146;53.232;-1.304;2022-08-11T13:36:50;4.23;;;1.13;;
73816;SDS011;62146;53.232;-1.304;2022-08-11T13:39:19;4.63;;;1.20;;
73816;SDS011;62146;53.232;-1.304;2022-08-11T13:41:49;4.35;;;1.10;;
73816;SDS011;62146;53.232;-1.304;2022-08-11T13:44:18;3.97;;;1.00;;
73816;SDS011;62146;53.232;-1.304;2022-08-11T13:46:51;3.97;;;0.90;;
73816;SDS011;62146;53.232;-1.304;2022-08-11T13:49:21;4.43;;;1.10;;
73816;SDS011;62146;53.232;-1.304;2022-08-11T13:51:48;3.65;;;1.05;;
73816;SDS011;62146;53.232;-1.304;2022-08-11T13:54:17;3.10;;;0.95;;
73816;SDS011;62146;53.232;-1.304;2022-08-11T13:56:48;3.00;;;0.90;;
73816;SDS011;62146;53.232;-1.304;2022-08-11T13:59:18;4.35;;;1.00;;
73816;SDS011;62146;53.232;-1.304;2022-08-11T14:01:55;4.00;;;0.90;;
73816;SDS011;62146;53.232;-1.304;2022-08-11T14:04:54;5.10;;;1.15;;
73816;SDS011;62146;53.232;-1.304;2022-08-11T14:07:24;5.65;;;0.93;;
73816;SDS011;62146;53.232;-1.304;2022-08-11T14:09:59;5.65;;;1.20;;
73816;SDS011;62146;53.232;-1.304;2022-08-11T14:12:31;5.25;;;1.10;;
73816;SDS011;62146;53.232;-1.304;2022-08-11T14:15:21;3.80;;;1.10;;
73816;SDS011;62146;53.232;-1.304;2022-08-11T14:17:51;2.85;;;1.00;;
73816;SDS011;62146;53.232;-1.304;2022-08-11T14:20:28;3.65;;;1.00;;
73816;SDS011;62146;53.232;-1.304;2022-08-11T14:23:17;4.15;;;1.30;;
73816;SDS011;62146;53.232;-1.304;2022-08-11T14:25:47;4.68;;;1.00;;
73816;SDS011;62146;53.232;-1.304;2022-08-11T14:28:33;3.30;;;0.97;;
73816;SDS011;62146;53.232;-1.304;2022-08-11T14:31:09;4.82;;;0.90;;
73816;SDS011;62146;53.232;-1.304;2022-08-11T14:33:39;5.07;;;1.23;;
73816;SDS011;62146;53.232;-1.304;2022-08-11T14:36:27;4.03;;;1.10;;
73816;SDS011;62146;53.232;-1.304;2022-08-11T14:39:01;3.33;;;1.20;;
73816;SDS011;62146;53.232;-1.304;2022-08-11T14:41:30;2.70;;;1.00;;
73816;SDS011;62146;53.232;-1.304;2022-08-11T14:44:37;5.05;;;1.10;;
73816;SDS011;62146;53.232;-1.304;2022-08-11T14:47:24;3.10;;;0.90;;
73816;SDS011;62146;53.232;-1.304;2022-08-11T14:49:53;3.15;;;1.10;;
73816;SDS011;62146;53.232;-1.304;2022-08-11T14:52:35;5.20;;;1.20;;
73816;SDS011;62146;53.232;-1.304;2022-08-11T14:55:03;3.60;;;1.00;;
73816;SDS011;62146;53.232;-1.304;2022-08-11T14:57:49;3.70;;;1.00;;
73816;SDS011;62146;53.232;-1.304;2022-08-11T15:00:21;2.25;;;0.80;;
73816;SDS011;62146;53.232;-1.304;2022-08-11T15:02:49;4.15;;;1.30;;
73816;SDS011;62146;53.232;-1.304;2022-08-11T15:08:24;3.57;;;0.90;;
73816;SDS011;62146;53.232;-1.304;2022-08-11T15:11:13;3.33;;;0.90;;
73816;SDS011;62146;53.232;-1.304;2022-08-11T15:14:00;5.50;;;1.13;;
73816;SDS011;62146;53.232;-1.304;2022-08-11T15:16:29;3.65;;;1.10;;
73816;SDS011;62146;53.232;-1.304;2022-08-11T15:19:14;6.50;;;1.00;;
73816;SDS011;62146;53.232;-1.304;2022-08-11T15:21:46;4.23;;;1.00;;
73816;SDS011;62146;53.232;-1.304;2022-08-11T15:24:33;3.67;;;0.90;;
73816;SDS011;62146;53.232;-1.304;2022-08-11T15:27:07;2.92;;;0.90;;
73816;SDS011;62146;53.232;-1.304;2022-08-11T15:29:56;5.75;;;1.00;;
73816;SDS011;62146;53.232;-1.304;2022-08-11T15:32:57;3.47;;;0.90;;
73816;SDS011;62146;53.232;-1.304;2022-08-11T15:35:45;3.47;;;1.00;;
73816;SDS011;62146;53.232;-1.304;2022-08-11T15:38:30;4.65;;;1.00;;
73816;SDS011;62146;53.232;-1.304;2022-08-11T15:41:01;3.33;;;0.90;;
73816;SDS011;62146;53.232;-1.304;2022-08-11T15:43:50;3.55;;;1.05;;
73816;SDS011;62146;53.232;-1.304;2022-08-11T15:46:43;6.20;;;1.20;;
73816;SDS011;62146;53.232;-1.304;2022-08-11T15:49:21;5.17;;;1.10;;
73816;SDS011;62146;53.232;-1.304;2022-08-11T15:52:24;4.85;;;0.90;;
73816;SDS011;62146;53.232;-1.304;2022-08-11T15:54:56;2.95;;;1.00;;
73816;SDS011;62146;53.232;-1.304;2022-08-11T15:57:27;2.85;;;0.80;;
73816;SDS011;62146;53.232;-1.304;2022-08-11T16:00:14;5.38;;;1.10;;
73816;SDS011;62146;53.232;-1.304;2022-08-11T16:03:01;3.17;;;1.00;;
73816;SDS011;62146;53.232;-1.304;2022-08-11T16:05:48;5.22;;;1.02;;
73816;SDS011;62146;53.232;-1.304;2022-08-11T16:08:19;4.70;;;0.90;;
73816;SDS011;62146;53.232;-1.304;2022-08-11T16:10:59;3.22;;;1.05;;
73816;SDS011;62146;53.232;-1.304;2022-08-11T16:13:29;4.03;;;0.88;;
73816;SDS011;62146;53.232;-1.304;2022-08-11T16:15:58;5.37;;;1.13;;
73816;SDS011;62146;53.232;-1.304;2022-08-11T16:18:42;6.03;;;1.30;;
73816;SDS011;62146;53.232;-1.304;2022-08-11T16:21:26;5.47;;;1.20;;
73816;SDS011;62146;53.232;-1.304;2022-08-11T16:24:03;4.50;;;1.30;;
73816;SDS011;62146;53.232;-1.304;2022-08-11T16:26:32;5.50;;;1.60;;
73816;SDS011;62146;53.232;-1.304;2022-08-11T16:29:23;5.97;;;1.30;;
73816;SDS011;62146;53.232;-1.304;2022-08-11T16:31:50;6.97;;;1.30;;
73816;SDS011;62146;53.232;-1.304;2022-08-11T16:34:39;4.97;;;1.20;;
73816;SDS011;62146;53.232;-1.304;2022-08-11T16:37:26;4.63;;;1.30;;
73816;SDS011;62146;53.232;-1.304;2022-08-11T16:40:13;4.05;;;1.00;;
73816;SDS011;62146;53.232;-1.304;2022-08-11T16:42:41;4.67;;;1.20;;
73816;SDS011;62146;53.232;-1.304;2022-08-11T16:45:37;5.50;;;1.15;;
73816;SDS011;62146;53.232;-1.304;2022-08-11T16:48:26;3.15;;;0.98;;
73816;SDS011;62146;53.232;-1.304;2022-08-11T16:51:06;4.63;;;1.00;;
73816;SDS011;62146;53.232;-1.304;2022-08-11T16:53:35;3.85;;;0.90;;
73816;SDS011;62146;53.232;-1.304;2022-08-11T16:56:28;2.93;;;0.90;;
73816;SDS011;62146;53.232;-1.304;2022-08-11T16:59:00;3.53;;;1.10;;
73816;SDS011;62146;53.232;-1.304;2022-08-11T17:01:52;7.05;;;1.20;;
73816;SDS011;62146;53.232;-1.304;2022-08-11T17:07:28;8.25;;;1.00;;
73816;SDS011;62146;53.232;-1.304;2022-08-11T17:10:16;4.70;;;1.93;;
73816;SDS011;62146;53.232;-1.304;2022-08-11T17:13:20;3.67;;;1.20;;
73816;SDS011;62146;53.232;-1.304;2022-08-11T17:15:50;3.15;;;1.08;;
73816;SDS011;62146;53.232;-1.304;2022-08-11T17:21:10;3.75;;;0.90;;
73816;SDS011;62146;53.232;-1.304;2022-08-11T17:23:52;6.70;;;1.07;;
73816;SDS011;62146;53.232;-1.304;2022-08-11T17:28:50;5.53;;;1.02;;
73816;SDS011;62146;53.232;-1.304;2022-08-11T17:31:22;3.83;;;1.02;;
73816;SDS011;62146;53.232;-1.304;2022-08-11T17:34:08;7.13;;;1.10;;
73816;SDS011;62146;53.232;-1.304;2022-08-11T17:36:54;4.10;;;0.90;;
73816;SDS011;62146;53.232;-1.304;2022-08-11T17:39:25;3.25;;;1.00;;
73816;SDS011;62146;53.232;-1.304;2022-08-11T17:41:54;3.42;;;0.90;;
73816;SDS011;62146;53.232;-1.304;2022-08-11T17:44:41;2.33;;;0.80;;
73816;SDS011;62146;53.232;-1.304;2022-08-11T17:47:35;2.83;;;0.90;;
73816;SDS011;62146;53.232;-1.304;2022-08-11T17:50:22;2.97;;;0.87;;
73816;SDS011;62146;53.232;-1.304;2022-08-11T17:52:49;2.58;;;0.80;;
73816;SDS011;62146;53.232;-1.304;2022-08-11T17:55:35;2.47;;;0.88;;
73816;SDS011;62146;53.232;-1.304;2022-08-11T17:58:23;4.88;;;1.00;;
73816;SDS011;62146;53.232;-1.304;2022-08-11T18:01:10;6.55;;;1.15;;
73816;SDS011;62146;53.232;-1.304;2022-08-11T18:03:39;3.63;;;1.00;;
73816;SDS011;62146;53.232;-1.304;2022-08-11T18:06:23;4.00;;;1.13;;
73816;SDS011;62146;53.232;-1.304;2022-08-11T18:09:00;8.07;;;1.40;;
73816;SDS011;62146;53.232;-1.304;2022-08-11T18:11:49;3.90;;;1.20;;
73816;SDS011;62146;53.232;-1.304;2022-08-11T18:14:38;6.30;;;1.23;;
73816;SDS011;62146;53.232;-1.304;2022-08-11T18:17:27;4.13;;;0.90;;
73816;SDS011;62146;53.232;-1.304;2022-08-11T18:20:13;5.30;;;1.17;;
73816;SDS011;62146;53.232;-1.304;2022-08-11T18:22:58;4.65;;;1.20;;
73816;SDS011;62146;53.232;-1.304;2022-08-11T18:26:07;3.88;;;1.08;;
73816;SDS011;62146;53.232;-1.304;2022-08-11T18:28:54;3.80;;;0.90;;
73816;SDS011;62146;53.232;-1.304;2022-08-11T18:31:42;2.63;;;1.00;;
73816;SDS011;62146;53.232;-1.304;2022-08-11T18:34:36;3.17;;;1.00;;
73816;SDS011;62146;53.232;-1.304;2022-08-11T18:37:25;2.40;;;0.88;;
73816;SDS011;62146;53.232;-1.304;2022-08-11T18:40:15;3.25;;;1.00;;
73816;SDS011;62146;53.232;-1.304;2022-08-11T18:43:04;5.22;;;1.17;;
73816;SDS011;62146;53.232;-1.304;2022-08-11T18:45:55;3.33;;;1.00;;
73816;SDS011;62146;53.232;-1.304;2022-08-11T18:48:46;4.05;;;1.10;;
73816;SDS011;62146;53.232;-1.304;2022-08-11T18:51:40;3.95;;;1.05;;
73816;SDS011;62146;53.232;-1.304;2022-08-11T18:54:30;5.18;;;1.42;;
73816;SDS011;62146;53.232;-1.304;2022-08-11T18:57:18;2.78;;;1.13;;
73816;SDS011;62146;53.232;-1.304;2022-08-11T19:00:20;3.17;;;1.40;;
73816;SDS011;62146;53.232;-1.304;2022-08-11T19:03:07;5.45;;;1.50;;
73816;SDS011;62146;53.232;-1.304;2022-08-11T19:05:56;4.43;;;1.40;;
73816;SDS011;62146;53.232;-1.304;2022-08-11T19:09:05;3.65;;;1.20;;
73816;SDS011;62146;53.232;-1.304;2022-08-11T19:11:54;5.00;;;1.50;;
73816;SDS011;62146;53.232;-1.304;2022-08-11T19:14:40;5.83;;;1.40;;
73816;SDS011;62146;53.232;-1.304;2022-08-11T19:17:26;4.35;;;1.40;;
73816;SDS011;62146;53.232;-1.304;2022-08-11T19:20:18;4.43;;;1.48;;
73816;SDS011;62146;53.232;-1.304;2022-08-11T19:23:07;4.13;;;1.30;;
73816;SDS011;62146;53.232;-1.304;2022-08-11T19:25:55;4.00;;;1.48;;
73816;SDS011;62146;53.232;-1.304;2022-08-11T19:28:43;5.47;;;1.50;;
73816;SDS011;62146;53.232;-1.304;2022-08-11T19:31:32;3.88;;;1.65;;
73816;SDS011;62146;53.232;-1.304;2022-08-11T19:34:18;4.50;;;1.50;;
73816;SDS011;62146;53.232;-1.304;2022-08-11T19:37:07;4.65;;;1.33;;
73816;SDS011;62146;53.232;-1.304;2022-08-11T19:39:54;3.55;;;1.30;;
73816;SDS011;62146;53.232;-1.304;2022-08-11T19:42:46;5.67;;;1.43;;
73816;SDS011;62146;53.232;-1.304;2022-08-11T19:45:48;5.75;;;1.40;;
73816;SDS011;62146;53.232;-1.304;2022-08-11T19:48:36;6.50;;;1.60;;
73816;SDS011;62146;53.232;-1.304;2022-08-11T19:51:22;5.80;;;1.35;;
73816;SDS011;62146;53.232;-1.304;2022-08-11T19:54:08;3.70;;;1.30;;
73816;SDS011;62146;53.232;-1.304;2022-08-11T19:56:54;5.73;;;1.30;;